Huelva, Spain
Current Conditions -  °F | °C
As of 11:00 AM on Wednesday 26 Nov 2014 (Local Time) from LERT Reporting Station
Scattered Clouds Scattered Clouds  
Wind Chill: 61°   Ceiling: Unl
Heat Index: 61°   Visibility: 6mi
Dew Point: 55°   Wind: 2mph
Humidity: 82%   Direction: NA
Pressure: 29.97"   Gusts: NA
Location:  37.26°N, 6.95°W
Report Text: LERT 261000Z VRB02KT 9999 SCT030 16/13 Q1015 NOSIG
Loading
Personal Weather Stations






























Interactive Weather Map New forecast layout! Learn more

10-Day Weather Forecast

Advertisements
Track Severe Weather on mobile